sensor_id;sensor_type;location;lat;lon;timestamp;P1;durP1;ratioP1;P2;durP2;ratioP2
31728;SDS011;18309;43.658;1.312;2024-01-11T00:00:13;34.40;;;17.08;;
31728;SDS011;18309;43.658;1.312;2024-01-11T00:02:39;31.83;;;15.82;;
31728;SDS011;18309;43.658;1.312;2024-01-11T00:05:05;36.78;;;16.20;;
31728;SDS011;18309;43.658;1.312;2024-01-11T00:07:31;29.30;;;14.73;;
31728;SDS011;18309;43.658;1.312;2024-01-11T00:09:57;30.25;;;16.25;;
31728;SDS011;18309;43.658;1.312;2024-01-11T00:12:23;29.75;;;14.90;;
31728;SDS011;18309;43.658;1.312;2024-01-11T00:14:48;26.67;;;14.25;;
31728;SDS011;18309;43.658;1.312;2024-01-11T00:17:14;29.25;;;14.45;;
31728;SDS011;18309;43.658;1.312;2024-01-11T00:19:40;31.45;;;15.57;;
31728;SDS011;18309;43.658;1.312;2024-01-11T00:22:06;35.28;;;16.80;;
31728;SDS011;18309;43.658;1.312;2024-01-11T00:24:32;37.60;;;18.08;;
31728;SDS011;18309;43.658;1.312;2024-01-11T00:26:57;33.47;;;17.30;;
31728;SDS011;18309;43.658;1.312;2024-01-11T00:29:23;31.05;;;15.73;;
31728;SDS011;18309;43.658;1.312;2024-01-11T00:31:49;32.33;;;15.07;;
31728;SDS011;18309;43.658;1.312;2024-01-11T00:34:14;32.40;;;15.65;;
31728;SDS011;18309;43.658;1.312;2024-01-11T00:36:40;28.83;;;14.93;;
31728;SDS011;18309;43.658;1.312;2024-01-11T00:39:06;30.38;;;13.68;;
31728;SDS011;18309;43.658;1.312;2024-01-11T00:41:31;31.30;;;15.27;;
31728;SDS011;18309;43.658;1.312;2024-01-11T00:43:57;30.90;;;14.02;;
31728;SDS011;18309;43.658;1.312;2024-01-11T00:46:23;29.08;;;14.27;;
31728;SDS011;18309;43.658;1.312;2024-01-11T00:48:48;28.27;;;13.50;;
31728;SDS011;18309;43.658;1.312;2024-01-11T00:51:15;30.75;;;14.18;;
31728;SDS011;18309;43.658;1.312;2024-01-11T00:53:40;34.15;;;14.52;;
31728;SDS011;18309;43.658;1.312;2024-01-11T00:56:14;31.85;;;15.15;;
31728;SDS011;18309;43.658;1.312;2024-01-11T00:58:42;29.67;;;14.27;;
31728;SDS011;18309;43.658;1.312;2024-01-11T01:01:08;33.95;;;15.45;;
31728;SDS011;18309;43.658;1.312;2024-01-11T01:03:35;36.45;;;16.23;;
31728;SDS011;18309;43.658;1.312;2024-01-11T01:06:01;35.10;;;16.33;;
31728;SDS011;18309;43.658;1.312;2024-01-11T01:08:27;35.80;;;17.23;;
31728;SDS011;18309;43.658;1.312;2024-01-11T01:10:53;35.53;;;17.67;;
31728;SDS011;18309;43.658;1.312;2024-01-11T01:13:18;37.20;;;17.17;;
31728;SDS011;18309;43.658;1.312;2024-01-11T01:15:44;38.90;;;17.75;;
31728;SDS011;18309;43.658;1.312;2024-01-11T01:18:10;36.83;;;17.02;;
31728;SDS011;18309;43.658;1.312;2024-01-11T01:20:36;36.80;;;17.75;;
31728;SDS011;18309;43.658;1.312;2024-01-11T01:23:02;38.80;;;17.48;;
31728;SDS011;18309;43.658;1.312;2024-01-11T01:25:28;40.92;;;17.27;;
31728;SDS011;18309;43.658;1.312;2024-01-11T01:27:54;36.85;;;18.15;;
31728;SDS011;18309;43.658;1.312;2024-01-11T01:30:20;33.05;;;17.42;;
31728;SDS011;18309;43.658;1.312;2024-01-11T01:32:46;42.75;;;18.35;;
31728;SDS011;18309;43.658;1.312;2024-01-11T01:35:12;34.83;;;17.83;;
31728;SDS011;18309;43.658;1.312;2024-01-11T01:37:38;34.60;;;16.67;;
31728;SDS011;18309;43.658;1.312;2024-01-11T01:40:03;38.70;;;18.30;;
31728;SDS011;18309;43.658;1.312;2024-01-11T01:42:30;40.63;;;18.77;;
31728;SDS011;18309;43.658;1.312;2024-01-11T01:44:56;38.97;;;18.60;;
31728;SDS011;18309;43.658;1.312;2024-01-11T01:47:21;41.15;;;20.08;;
31728;SDS011;18309;43.658;1.312;2024-01-11T01:49:47;38.08;;;18.50;;
31728;SDS011;18309;43.658;1.312;2024-01-11T01:52:14;41.17;;;19.35;;
31728;SDS011;18309;43.658;1.312;2024-01-11T01:54:42;41.00;;;19.10;;
31728;SDS011;18309;43.658;1.312;2024-01-11T01:57:08;39.22;;;18.67;;
31728;SDS011;18309;43.658;1.312;2024-01-11T01:59:35;46.63;;;19.65;;
31728;SDS011;18309;43.658;1.312;2024-01-11T02:02:03;38.65;;;18.77;;
31728;SDS011;18309;43.658;1.312;2024-01-11T02:04:30;42.42;;;19.50;;
31728;SDS011;18309;43.658;1.312;2024-01-11T02:06:57;43.17;;;19.50;;
31728;SDS011;18309;43.658;1.312;2024-01-11T02:09:23;42.13;;;19.58;;
31728;SDS011;18309;43.658;1.312;2024-01-11T02:11:50;39.28;;;19.13;;
31728;SDS011;18309;43.658;1.312;2024-01-11T02:14:18;42.03;;;20.65;;
31728;SDS011;18309;43.658;1.312;2024-01-11T02:16:44;40.72;;;20.73;;
31728;SDS011;18309;43.658;1.312;2024-01-11T02:19:12;43.92;;;21.05;;
31728;SDS011;18309;43.658;1.312;2024-01-11T02:21:39;38.90;;;19.58;;
31728;SDS011;18309;43.658;1.312;2024-01-11T02:24:08;40.60;;;20.30;;
31728;SDS011;18309;43.658;1.312;2024-01-11T02:26:34;44.00;;;21.58;;
31728;SDS011;18309;43.658;1.312;2024-01-11T02:29:00;42.33;;;20.05;;
31728;SDS011;18309;43.658;1.312;2024-01-11T02:31:26;45.15;;;21.40;;
31728;SDS011;18309;43.658;1.312;2024-01-11T02:33:52;42.22;;;20.98;;
31728;SDS011;18309;43.658;1.312;2024-01-11T02:36:19;43.35;;;20.25;;
31728;SDS011;18309;43.658;1.312;2024-01-11T02:38:45;39.15;;;19.42;;
31728;SDS011;18309;43.658;1.312;2024-01-11T02:41:11;40.63;;;20.40;;
31728;SDS011;18309;43.658;1.312;2024-01-11T02:43:39;45.33;;;19.77;;
31728;SDS011;18309;43.658;1.312;2024-01-11T02:46:05;39.33;;;20.15;;
31728;SDS011;18309;43.658;1.312;2024-01-11T02:48:30;42.42;;;20.45;;
31728;SDS011;18309;43.658;1.312;2024-01-11T02:50:59;40.13;;;19.50;;
31728;SDS011;18309;43.658;1.312;2024-01-11T02:53:24;42.63;;;20.40;;
31728;SDS011;18309;43.658;1.312;2024-01-11T02:55:50;40.67;;;19.25;;
31728;SDS011;18309;43.658;1.312;2024-01-11T02:58:16;40.25;;;20.83;;
31728;SDS011;18309;43.658;1.312;2024-01-11T03:00:42;39.70;;;19.42;;
31728;SDS011;18309;43.658;1.312;2024-01-11T03:03:07;37.38;;;18.63;;
31728;SDS011;18309;43.658;1.312;2024-01-11T03:05:33;39.42;;;18.90;;
31728;SDS011;18309;43.658;1.312;2024-01-11T03:07:59;40.08;;;19.45;;
31728;SDS011;18309;43.658;1.312;2024-01-11T03:10:24;39.42;;;19.65;;
31728;SDS011;18309;43.658;1.312;2024-01-11T03:12:50;37.92;;;18.23;;
31728;SDS011;18309;43.658;1.312;2024-01-11T03:15:16;41.97;;;20.13;;
31728;SDS011;18309;43.658;1.312;2024-01-11T03:17:41;38.53;;;19.40;;
31728;SDS011;18309;43.658;1.312;2024-01-11T03:20:07;39.45;;;18.33;;
31728;SDS011;18309;43.658;1.312;2024-01-11T03:22:33;38.63;;;18.15;;
31728;SDS011;18309;43.658;1.312;2024-01-11T03:24:59;37.63;;;17.55;;
31728;SDS011;18309;43.658;1.312;2024-01-11T03:27:25;33.80;;;17.33;;
31728;SDS011;18309;43.658;1.312;2024-01-11T03:29:50;34.58;;;16.75;;
31728;SDS011;18309;43.658;1.312;2024-01-11T03:32:16;41.15;;;19.20;;
31728;SDS011;18309;43.658;1.312;2024-01-11T03:34:42;35.33;;;16.48;;
31728;SDS011;18309;43.658;1.312;2024-01-11T03:37:08;33.72;;;17.08;;
31728;SDS011;18309;43.658;1.312;2024-01-11T03:39:34;33.10;;;16.65;;
31728;SDS011;18309;43.658;1.312;2024-01-11T03:42:00;31.90;;;15.93;;
31728;SDS011;18309;43.658;1.312;2024-01-11T03:44:25;34.40;;;15.63;;
31728;SDS011;18309;43.658;1.312;2024-01-11T03:46:51;29.38;;;15.20;;
31728;SDS011;18309;43.658;1.312;2024-01-11T03:49:17;29.45;;;14.43;;
31728;SDS011;18309;43.658;1.312;2024-01-11T03:51:43;31.75;;;15.73;;
31728;SDS011;18309;43.658;1.312;2024-01-11T03:54:09;28.40;;;14.50;;
31728;SDS011;18309;43.658;1.312;2024-01-11T03:56:38;29.73;;;14.93;;
31728;SDS011;18309;43.658;1.312;2024-01-11T03:59:06;31.42;;;14.68;;
31728;SDS011;18309;43.658;1.312;2024-01-11T04:01:32;28.88;;;15.77;;
31728;SDS011;18309;43.658;1.312;2024-01-11T04:03:58;30.17;;;15.20;;
31728;SDS011;18309;43.658;1.312;2024-01-11T04:06:24;33.63;;;15.40;;
31728;SDS011;18309;43.658;1.312;2024-01-11T04:08:50;26.83;;;13.73;;
31728;SDS011;18309;43.658;1.312;2024-01-11T04:11:16;31.42;;;14.65;;
31728;SDS011;18309;43.658;1.312;2024-01-11T04:13:42;32.88;;;14.75;;
31728;SDS011;18309;43.658;1.312;2024-01-11T04:16:08;31.05;;;15.20;;
31728;SDS011;18309;43.658;1.312;2024-01-11T04:18:34;30.73;;;15.52;;
31728;SDS011;18309;43.658;1.312;2024-01-11T04:21:00;30.38;;;15.65;;
31728;SDS011;18309;43.658;1.312;2024-01-11T04:23:25;32.15;;;15.45;;
31728;SDS011;18309;43.658;1.312;2024-01-11T04:25:51;29.08;;;14.65;;
31728;SDS011;18309;43.658;1.312;2024-01-11T04:28:17;30.90;;;15.07;;
31728;SDS011;18309;43.658;1.312;2024-01-11T04:30:43;27.38;;;14.80;;
31728;SDS011;18309;43.658;1.312;2024-01-11T04:33:09;34.17;;;15.45;;
31728;SDS011;18309;43.658;1.312;2024-01-11T04:35:35;29.38;;;15.20;;
31728;SDS011;18309;43.658;1.312;2024-01-11T04:38:01;32.13;;;15.23;;
31728;SDS011;18309;43.658;1.312;2024-01-11T04:40:27;33.88;;;15.10;;
31728;SDS011;18309;43.658;1.312;2024-01-11T04:42:52;29.27;;;14.45;;
31728;SDS011;18309;43.658;1.312;2024-01-11T04:45:18;29.10;;;14.98;;
31728;SDS011;18309;43.658;1.312;2024-01-11T04:47:44;26.33;;;13.23;;
31728;SDS011;18309;43.658;1.312;2024-01-11T04:50:09;31.10;;;15.13;;
31728;SDS011;18309;43.658;1.312;2024-01-11T04:52:35;30.00;;;14.00;;
31728;SDS011;18309;43.658;1.312;2024-01-11T04:55:01;29.20;;;14.07;;
31728;SDS011;18309;43.658;1.312;2024-01-11T04:57:27;30.38;;;14.30;;
31728;SDS011;18309;43.658;1.312;2024-01-11T04:59:53;28.98;;;13.88;;
31728;SDS011;18309;43.658;1.312;2024-01-11T05:02:21;28.83;;;14.15;;
31728;SDS011;18309;43.658;1.312;2024-01-11T05:04:48;27.65;;;14.18;;
31728;SDS011;18309;43.658;1.312;2024-01-11T05:07:13;25.83;;;13.82;;
31728;SDS011;18309;43.658;1.312;2024-01-11T05:09:39;31.05;;;15.23;;
31728;SDS011;18309;43.658;1.312;2024-01-11T05:12:05;28.17;;;13.55;;
31728;SDS011;18309;43.658;1.312;2024-01-11T05:14:31;26.38;;;12.98;;
31728;SDS011;18309;43.658;1.312;2024-01-11T05:16:56;26.98;;;13.82;;
31728;SDS011;18309;43.658;1.312;2024-01-11T05:19:22;27.10;;;13.00;;
31728;SDS011;18309;43.658;1.312;2024-01-11T05:21:48;29.15;;;14.13;;
31728;SDS011;18309;43.658;1.312;2024-01-11T05:24:13;27.23;;;13.32;;
31728;SDS011;18309;43.658;1.312;2024-01-11T05:26:39;29.17;;;13.85;;
31728;SDS011;18309;43.658;1.312;2024-01-11T05:29:05;26.00;;;13.40;;
31728;SDS011;18309;43.658;1.312;2024-01-11T05:31:30;29.90;;;14.02;;
31728;SDS011;18309;43.658;1.312;2024-01-11T05:33:56;31.00;;;14.65;;
31728;SDS011;18309;43.658;1.312;2024-01-11T05:36:22;32.60;;;14.13;;
31728;SDS011;18309;43.658;1.312;2024-01-11T05:38:48;26.42;;;13.07;;
31728;SDS011;18309;43.658;1.312;2024-01-11T05:41:14;28.55;;;13.88;;
31728;SDS011;18309;43.658;1.312;2024-01-11T05:43:40;32.53;;;15.02;;
31728;SDS011;18309;43.658;1.312;2024-01-11T05:46:06;28.25;;;14.02;;
31728;SDS011;18309;43.658;1.312;2024-01-11T05:48:32;25.63;;;13.68;;
31728;SDS011;18309;43.658;1.312;2024-01-11T05:50:58;25.92;;;12.95;;
31728;SDS011;18309;43.658;1.312;2024-01-11T05:53:25;29.33;;;13.70;;
31728;SDS011;18309;43.658;1.312;2024-01-11T05:55:52;32.92;;;15.52;;
31728;SDS011;18309;43.658;1.312;2024-01-11T05:58:18;27.58;;;13.38;;
31728;SDS011;18309;43.658;1.312;2024-01-11T06:00:44;28.73;;;13.60;;
31728;SDS011;18309;43.658;1.312;2024-01-11T06:03:13;30.08;;;14.43;;
31728;SDS011;18309;43.658;1.312;2024-01-11T06:05:39;30.02;;;14.52;;
31728;SDS011;18309;43.658;1.312;2024-01-11T06:08:05;38.25;;;16.73;;
31728;SDS011;18309;43.658;1.312;2024-01-11T06:10:31;45.72;;;19.30;;
31728;SDS011;18309;43.658;1.312;2024-01-11T06:12:56;52.83;;;20.30;;
31728;SDS011;18309;43.658;1.312;2024-01-11T06:15:22;41.75;;;18.13;;
31728;SDS011;18309;43.658;1.312;2024-01-11T06:17:47;32.30;;;14.35;;
31728;SDS011;18309;43.658;1.312;2024-01-11T06:20:13;31.55;;;15.20;;
31728;SDS011;18309;43.658;1.312;2024-01-11T06:22:39;31.45;;;15.18;;
31728;SDS011;18309;43.658;1.312;2024-01-11T06:25:05;48.67;;;21.25;;
31728;SDS011;18309;43.658;1.312;2024-01-11T06:27:31;50.58;;;21.65;;
31728;SDS011;18309;43.658;1.312;2024-01-11T06:29:56;49.08;;;20.92;;
31728;SDS011;18309;43.658;1.312;2024-01-11T06:32:22;40.90;;;19.20;;
31728;SDS011;18309;43.658;1.312;2024-01-11T06:34:47;42.88;;;19.83;;
31728;SDS011;18309;43.658;1.312;2024-01-11T06:37:13;40.13;;;19.30;;
31728;SDS011;18309;43.658;1.312;2024-01-11T06:39:39;39.88;;;18.70;;
31728;SDS011;18309;43.658;1.312;2024-01-11T06:42:04;40.95;;;17.80;;
31728;SDS011;18309;43.658;1.312;2024-01-11T06:44:30;34.08;;;16.58;;
31728;SDS011;18309;43.658;1.312;2024-01-11T06:46:56;33.88;;;16.98;;
31728;SDS011;18309;43.658;1.312;2024-01-11T06:49:22;33.78;;;16.67;;
31728;SDS011;18309;43.658;1.312;2024-01-11T06:51:47;32.60;;;16.20;;
31728;SDS011;18309;43.658;1.312;2024-01-11T06:54:13;34.80;;;16.33;;
31728;SDS011;18309;43.658;1.312;2024-01-11T06:56:39;36.25;;;17.38;;
31728;SDS011;18309;43.658;1.312;2024-01-11T06:59:04;36.92;;;16.83;;
31728;SDS011;18309;43.658;1.312;2024-01-11T07:01:32;38.92;;;17.23;;
31728;SDS011;18309;43.658;1.312;2024-01-11T07:03:58;38.30;;;16.27;;
31728;SDS011;18309;43.658;1.312;2024-01-11T07:06:24;35.13;;;15.65;;
31728;SDS011;18309;43.658;1.312;2024-01-11T07:08:49;36.63;;;15.95;;
31728;SDS011;18309;43.658;1.312;2024-01-11T07:11:15;33.28;;;15.70;;
31728;SDS011;18309;43.658;1.312;2024-01-11T07:13:41;34.30;;;15.13;;
31728;SDS011;18309;43.658;1.312;2024-01-11T07:16:07;30.42;;;15.23;;
31728;SDS011;18309;43.658;1.312;2024-01-11T07:18:33;29.88;;;14.90;;
31728;SDS011;18309;43.658;1.312;2024-01-11T07:20:59;28.23;;;13.63;;
31728;SDS011;18309;43.658;1.312;2024-01-11T07:23:26;27.25;;;13.60;;
31728;SDS011;18309;43.658;1.312;2024-01-11T07:25:52;30.50;;;16.17;;
31728;SDS011;18309;43.658;1.312;2024-01-11T07:28:18;39.50;;;18.05;;
31728;SDS011;18309;43.658;1.312;2024-01-11T07:30:44;35.00;;;17.00;;
31728;SDS011;18309;43.658;1.312;2024-01-11T07:33:11;32.85;;;15.57;;
31728;SDS011;18309;43.658;1.312;2024-01-11T07:35:37;30.35;;;15.45;;
31728;SDS011;18309;43.658;1.312;2024-01-11T07:38:02;32.72;;;14.40;;
31728;SDS011;18309;43.658;1.312;2024-01-11T07:40:29;26.27;;;13.85;;
31728;SDS011;18309;43.658;1.312;2024-01-11T07:42:54;31.55;;;15.48;;
31728;SDS011;18309;43.658;1.312;2024-01-11T07:45:20;36.03;;;15.38;;
31728;SDS011;18309;43.658;1.312;2024-01-11T07:47:46;25.98;;;12.98;;
31728;SDS011;18309;43.658;1.312;2024-01-11T07:50:12;30.25;;;12.95;;
31728;SDS011;18309;43.658;1.312;2024-01-11T07:52:38;26.75;;;13.27;;
31728;SDS011;18309;43.658;1.312;2024-01-11T07:55:08;29.52;;;13.88;;
31728;SDS011;18309;43.658;1.312;2024-01-11T07:57:39;37.63;;;16.95;;
31728;SDS011;18309;43.658;1.312;2024-01-11T08:00:05;29.17;;;14.70;;
31728;SDS011;18309;43.658;1.312;2024-01-11T08:02:34;26.45;;;13.50;;
31728;SDS011;18309;43.658;1.312;2024-01-11T08:05:00;29.75;;;13.93;;
31728;SDS011;18309;43.658;1.312;2024-01-11T08:07:26;28.15;;;14.75;;
31728;SDS011;18309;43.658;1.312;2024-01-11T08:09:52;26.60;;;13.40;;
31728;SDS011;18309;43.658;1.312;2024-01-11T08:12:18;30.92;;;13.73;;
31728;SDS011;18309;43.658;1.312;2024-01-11T08:14:44;27.40;;;13.27;;
31728;SDS011;18309;43.658;1.312;2024-01-11T08:17:11;31.52;;;14.27;;
31728;SDS011;18309;43.658;1.312;2024-01-11T08:19:38;26.17;;;11.90;;
31728;SDS011;18309;43.658;1.312;2024-01-11T08:22:05;31.48;;;13.15;;
31728;SDS011;18309;43.658;1.312;2024-01-11T08:24:31;27.17;;;13.73;;
31728;SDS011;18309;43.658;1.312;2024-01-11T08:26:57;23.63;;;12.90;;
31728;SDS011;18309;43.658;1.312;2024-01-11T08:29:23;29.40;;;13.75;;
31728;SDS011;18309;43.658;1.312;2024-01-11T08:31:49;25.52;;;12.80;;
31728;SDS011;18309;43.658;1.312;2024-01-11T08:34:15;26.85;;;13.60;;
31728;SDS011;18309;43.658;1.312;2024-01-11T08:36:41;29.15;;;13.25;;
31728;SDS011;18309;43.658;1.312;2024-01-11T08:39:07;26.23;;;13.93;;
31728;SDS011;18309;43.658;1.312;2024-01-11T08:41:36;26.65;;;13.88;;
31728;SDS011;18309;43.658;1.312;2024-01-11T08:44:02;30.17;;;14.95;;
31728;SDS011;18309;43.658;1.312;2024-01-11T08:46:30;25.95;;;13.77;;
31728;SDS011;18309;43.658;1.312;2024-01-11T08:48:58;27.15;;;15.02;;
31728;SDS011;18309;43.658;1.312;2024-01-11T08:51:24;27.88;;;14.15;;
31728;SDS011;18309;43.658;1.312;2024-01-11T08:53:49;25.25;;;13.48;;
31728;SDS011;18309;43.658;1.312;2024-01-11T08:56:15;25.95;;;12.93;;
31728;SDS011;18309;43.658;1.312;2024-01-11T08:58:42;25.27;;;13.35;;
31728;SDS011;18309;43.658;1.312;2024-01-11T09:01:08;23.20;;;11.82;;
31728;SDS011;18309;43.658;1.312;2024-01-11T09:03:36;26.08;;;12.45;;
31728;SDS011;18309;43.658;1.312;2024-01-11T09:06:02;26.85;;;13.00;;
31728;SDS011;18309;43.658;1.312;2024-01-11T09:08:29;25.10;;;12.35;;
31728;SDS011;18309;43.658;1.312;2024-01-11T09:10:55;26.35;;;13.43;;
31728;SDS011;18309;43.658;1.312;2024-01-11T09:13:23;28.80;;;13.02;;
31728;SDS011;18309;43.658;1.312;2024-01-11T09:15:48;23.45;;;12.35;;
31728;SDS011;18309;43.658;1.312;2024-01-11T09:18:14;25.92;;;12.73;;
31728;SDS011;18309;43.658;1.312;2024-01-11T09:20:41;26.88;;;13.10;;
31728;SDS011;18309;43.658;1.312;2024-01-11T09:23:06;28.80;;;14.43;;
31728;SDS011;18309;43.658;1.312;2024-01-11T09:25:33;26.33;;;13.60;;
31728;SDS011;18309;43.658;1.312;2024-01-11T09:27:59;31.63;;;13.60;;
31728;SDS011;18309;43.658;1.312;2024-01-11T09:30:24;26.80;;;13.32;;
31728;SDS011;18309;43.658;1.312;2024-01-11T09:32:50;26.80;;;14.02;;
31728;SDS011;18309;43.658;1.312;2024-01-11T09:35:17;26.70;;;14.13;;
31728;SDS011;18309;43.658;1.312;2024-01-11T09:37:42;25.90;;;12.82;;
31728;SDS011;18309;43.658;1.312;2024-01-11T09:40:11;26.30;;;12.95;;
31728;SDS011;18309;43.658;1.312;2024-01-11T09:42:37;27.33;;;13.20;;
31728;SDS011;18309;43.658;1.312;2024-01-11T09:45:13;28.77;;;14.15;;
31728;SDS011;18309;43.658;1.312;2024-01-11T09:47:41;23.05;;;12.65;;
31728;SDS011;18309;43.658;1.312;2024-01-11T09:50:07;24.73;;;13.27;;
31728;SDS011;18309;43.658;1.312;2024-01-11T09:52:33;27.13;;;12.82;;
31728;SDS011;18309;43.658;1.312;2024-01-11T09:55:02;27.95;;;12.43;;
31728;SDS011;18309;43.658;1.312;2024-01-11T09:57:31;26.98;;;11.85;;
31728;SDS011;18309;43.658;1.312;2024-01-11T10:00:00;23.45;;;12.50;;
31728;SDS011;18309;43.658;1.312;2024-01-11T10:02:32;24.70;;;11.95;;
31728;SDS011;18309;43.658;1.312;2024-01-11T10:04:58;26.50;;;11.48;;
31728;SDS011;18309;43.658;1.312;2024-01-11T10:07:24;23.77;;;11.57;;
31728;SDS011;18309;43.658;1.312;2024-01-11T10:09:50;20.88;;;10.98;;
31728;SDS011;18309;43.658;1.312;2024-01-11T10:12:22;23.65;;;11.85;;
31728;SDS011;18309;43.658;1.312;2024-01-11T10:14:50;23.85;;;11.45;;
31728;SDS011;18309;43.658;1.312;2024-01-11T10:17:17;23.45;;;11.23;;
31728;SDS011;18309;43.658;1.312;2024-01-11T10:19:43;27.48;;;12.20;;
31728;SDS011;18309;43.658;1.312;2024-01-11T10:22:09;24.85;;;11.98;;
31728;SDS011;18309;43.658;1.312;2024-01-11T10:24:38;25.70;;;12.25;;
31728;SDS011;18309;43.658;1.312;2024-01-11T10:27:04;24.55;;;12.45;;
31728;SDS011;18309;43.658;1.312;2024-01-11T10:29:33;28.20;;;13.18;;
31728;SDS011;18309;43.658;1.312;2024-01-11T10:32:01;27.98;;;12.55;;
31728;SDS011;18309;43.658;1.312;2024-01-11T10:34:28;21.73;;;11.45;;
31728;SDS011;18309;43.658;1.312;2024-01-11T10:36:54;20.80;;;10.52;;
31728;SDS011;18309;43.658;1.312;2024-01-11T10:39:24;24.27;;;11.07;;
31728;SDS011;18309;43.658;1.312;2024-01-11T10:41:51;21.80;;;11.48;;
31728;SDS011;18309;43.658;1.312;2024-01-11T10:44:29;27.10;;;11.50;;
31728;SDS011;18309;43.658;1.312;2024-01-11T10:46:59;20.27;;;9.60;;
31728;SDS011;18309;43.658;1.312;2024-01-11T10:49:27;23.42;;;11.57;;
31728;SDS011;18309;43.658;1.312;2024-01-11T10:52:04;23.60;;;10.63;;
31728;SDS011;18309;43.658;1.312;2024-01-11T10:54:33;19.40;;;9.55;;
31728;SDS011;18309;43.658;1.312;2024-01-11T10:57:00;19.52;;;10.23;;
31728;SDS011;18309;43.658;1.312;2024-01-11T10:59:28;23.38;;;11.15;;
31728;SDS011;18309;43.658;1.312;2024-01-11T11:01:56;22.80;;;10.60;;
31728;SDS011;18309;43.658;1.312;2024-01-11T11:04:23;21.17;;;10.35;;
31728;SDS011;18309;43.658;1.312;2024-01-11T11:06:56;20.95;;;10.48;;
31728;SDS011;18309;43.658;1.312;2024-01-11T11:09:25;20.63;;;11.18;;
31728;SDS011;18309;43.658;1.312;2024-01-11T11:11:58;25.42;;;12.18;;
31728;SDS011;18309;43.658;1.312;2024-01-11T11:14:24;27.98;;;11.30;;
31728;SDS011;18309;43.658;1.312;2024-01-11T11:16:50;21.70;;;11.48;;
31728;SDS011;18309;43.658;1.312;2024-01-11T11:19:21;21.20;;;10.95;;
31728;SDS011;18309;43.658;1.312;2024-01-11T11:21:48;20.67;;;10.70;;
31728;SDS011;18309;43.658;1.312;2024-01-11T11:24:16;21.90;;;10.07;;
31728;SDS011;18309;43.658;1.312;2024-01-11T11:26:42;21.98;;;10.93;;
31728;SDS011;18309;43.658;1.312;2024-01-11T11:29:08;22.98;;;12.25;;
31728;SDS011;18309;43.658;1.312;2024-01-11T11:31:43;25.15;;;12.50;;
31728;SDS011;18309;43.658;1.312;2024-01-11T11:34:18;19.55;;;10.10;;
31728;SDS011;18309;43.658;1.312;2024-01-11T11:36:48;19.95;;;10.75;;
31728;SDS011;18309;43.658;1.312;2024-01-11T11:39:19;21.75;;;10.32;;
31728;SDS011;18309;43.658;1.312;2024-01-11T11:41:47;21.80;;;10.70;;
31728;SDS011;18309;43.658;1.312;2024-01-11T11:44:14;22.30;;;12.05;;
31728;SDS011;18309;43.658;1.312;2024-01-11T11:46:41;19.30;;;10.05;;
31728;SDS011;18309;43.658;1.312;2024-01-11T11:49:08;22.10;;;10.68;;
31728;SDS011;18309;43.658;1.312;2024-01-11T11:51:35;27.13;;;11.90;;
31728;SDS011;18309;43.658;1.312;2024-01-11T11:54:05;25.35;;;11.68;;
31728;SDS011;18309;43.658;1.312;2024-01-11T11:56:34;20.98;;;10.88;;
31728;SDS011;18309;43.658;1.312;2024-01-11T11:59:01;22.73;;;11.45;;
31728;SDS011;18309;43.658;1.312;2024-01-11T12:01:28;23.17;;;11.65;;
31728;SDS011;18309;43.658;1.312;2024-01-11T12:03:56;22.77;;;11.70;;
31728;SDS011;18309;43.658;1.312;2024-01-11T12:06:22;22.58;;;11.73;;
31728;SDS011;18309;43.658;1.312;2024-01-11T12:08:49;20.83;;;10.45;;
31728;SDS011;18309;43.658;1.312;2024-01-11T12:11:18;21.65;;;11.25;;
31728;SDS011;18309;43.658;1.312;2024-01-11T12:13:44;22.95;;;11.60;;
31728;SDS011;18309;43.658;1.312;2024-01-11T12:16:12;25.08;;;12.38;;
31728;SDS011;18309;43.658;1.312;2024-01-11T12:18:38;24.23;;;12.20;;
31728;SDS011;18309;43.658;1.312;2024-01-11T12:21:04;27.40;;;11.98;;
31728;SDS011;18309;43.658;1.312;2024-01-11T12:23:30;18.95;;;10.32;;
31728;SDS011;18309;43.658;1.312;2024-01-11T12:25:58;21.80;;;11.70;;
31728;SDS011;18309;43.658;1.312;2024-01-11T12:28:25;26.27;;;11.82;;
31728;SDS011;18309;43.658;1.312;2024-01-11T12:30:51;22.52;;;12.07;;
31728;SDS011;18309;43.658;1.312;2024-01-11T12:33:17;22.73;;;11.23;;
31728;SDS011;18309;43.658;1.312;2024-01-11T12:35:43;22.25;;;11.38;;
31728;SDS011;18309;43.658;1.312;2024-01-11T12:38:10;30.20;;;12.82;;
31728;SDS011;18309;43.658;1.312;2024-01-11T12:40:36;27.58;;;12.52;;
31728;SDS011;18309;43.658;1.312;2024-01-11T12:43:03;25.42;;;11.75;;
31728;SDS011;18309;43.658;1.312;2024-01-11T12:45:29;25.35;;;11.48;;
31728;SDS011;18309;43.658;1.312;2024-01-11T12:47:57;24.73;;;11.77;;
31728;SDS011;18309;43.658;1.312;2024-01-11T12:50:25;21.88;;;11.80;;
31728;SDS011;18309;43.658;1.312;2024-01-11T12:53:11;27.10;;;11.60;;
31728;SDS011;18309;43.658;1.312;2024-01-11T12:55:47;25.92;;;12.45;;
31728;SDS011;18309;43.658;1.312;2024-01-11T12:58:13;20.60;;;11.43;;
31728;SDS011;18309;43.658;1.312;2024-01-11T13:00:45;22.33;;;11.10;;
31728;SDS011;18309;43.658;1.312;2024-01-11T13:03:11;22.23;;;12.05;;
31728;SDS011;18309;43.658;1.312;2024-01-11T13:05:36;22.98;;;11.60;;
31728;SDS011;18309;43.658;1.312;2024-01-11T13:08:02;21.30;;;11.23;;
31728;SDS011;18309;43.658;1.312;2024-01-11T13:10:33;19.85;;;10.88;;
31728;SDS011;18309;43.658;1.312;2024-01-11T13:13:00;20.85;;;11.13;;
31728;SDS011;18309;43.658;1.312;2024-01-11T13:15:26;24.63;;;11.38;;
31728;SDS011;18309;43.658;1.312;2024-01-11T13:17:54;22.73;;;11.48;;
31728;SDS011;18309;43.658;1.312;2024-01-11T13:20:21;22.10;;;11.05;;
31728;SDS011;18309;43.658;1.312;2024-01-11T13:22:46;23.77;;;11.40;;
31728;SDS011;18309;43.658;1.312;2024-01-11T13:25:12;23.35;;;11.73;;
31728;SDS011;18309;43.658;1.312;2024-01-11T13:27:38;23.10;;;12.02;;
31728;SDS011;18309;43.658;1.312;2024-01-11T13:30:05;22.00;;;11.38;;
31728;SDS011;18309;43.658;1.312;2024-01-11T13:32:34;19.17;;;10.85;;
31728;SDS011;18309;43.658;1.312;2024-01-11T13:35:00;22.45;;;11.55;;
31728;SDS011;18309;43.658;1.312;2024-01-11T13:37:27;19.85;;;10.32;;
31728;SDS011;18309;43.658;1.312;2024-01-11T13:39:52;26.25;;;13.02;;
31728;SDS011;18309;43.658;1.312;2024-01-11T13:42:18;24.98;;;10.93;;
31728;SDS011;18309;43.658;1.312;2024-01-11T13:44:44;19.90;;;10.52;;
31728;SDS011;18309;43.658;1.312;2024-01-11T13:47:09;19.27;;;10.27;;
31728;SDS011;18309;43.658;1.312;2024-01-11T13:49:35;19.65;;;10.15;;
31728;SDS011;18309;43.658;1.312;2024-01-11T13:52:02;25.88;;;11.00;;
31728;SDS011;18309;43.658;1.312;2024-01-11T13:54:29;24.67;;;11.77;;
31728;SDS011;18309;43.658;1.312;2024-01-11T13:56:56;20.08;;;10.75;;
31728;SDS011;18309;43.658;1.312;2024-01-11T13:59:22;22.02;;;11.75;;
31728;SDS011;18309;43.658;1.312;2024-01-11T14:01:48;26.55;;;11.90;;
31728;SDS011;18309;43.658;1.312;2024-01-11T14:04:14;18.73;;;10.60;;
31728;SDS011;18309;43.658;1.312;2024-01-11T14:06:40;21.85;;;11.25;;
31728;SDS011;18309;43.658;1.312;2024-01-11T14:09:06;20.33;;;10.55;;
31728;SDS011;18309;43.658;1.312;2024-01-11T14:11:34;21.33;;;10.73;;
31728;SDS011;18309;43.658;1.312;2024-01-11T14:14:03;23.05;;;11.25;;
31728;SDS011;18309;43.658;1.312;2024-01-11T14:16:29;17.75;;;10.32;;